»·PEaware :: WAT380 KSBA-KSEE

WAT380 :: KSBA-KSEE

FLIGHT INFORMATION

Flight Status: Arrived
Operator:
Walker Air Transport
More flights by this operator :: More flights under this callsign
Pilot: Spencer M. (27733)
Aircraft: BEECH AIRCRAFT PREMIER
(PRM1)
More flights by this aircraft type
Origin: KSBA Santa Barbara Mun
United States
Destination: KSEE Gillespie
United States
More flights between these airports :: More routes between these airports
Route: KWANG VTU V208 SXC V208 LAX118 CARDI MZB320 MZB
File this flight plan on PilotEdge
Remarks: TEC Route SBAP29
Altitude:
(Current/Filed)
11,000ft
Speed:
(Current/Filed)
380kts
Departed: 05-Jan-22 01:06 PM
Arrived: 05-Jan-22 01:52 PM
Distance/Time
Traveled:
172nm/0:46
Distance/Time
To Go:
Arrived

Flight Plot

Page will automatically refresh every two minutes.


Map Options




Map Legend


Flown Route
Filed Route
Departure Airport
Arrival Airport
Navaid (VOR, NDB)
Fix

Horizontal Profiles

Position Reports

Time Latitude Longitude Heading Altitude Ground
Speed
05-Jan-22 12:45 34.432559 -119.835123 71 21ft 0kts
05-Jan-22 12:46 34.432559 -119.835123 71 21ft 0kts
05-Jan-22 12:47 34.432559 -119.835123 71 21ft 0kts
05-Jan-22 12:48 34.432559 -119.835123 71 21ft 0kts
05-Jan-22 12:49 34.432559 -119.835123 71 21ft 0kts
05-Jan-22 12:50 34.432559 -119.835123 71 21ft 0kts
05-Jan-22 12:51 34.432559 -119.835123 71 21ft 0kts
05-Jan-22 12:52 34.432559 -119.835123 71 21ft 0kts
05-Jan-22 12:53 34.432559 -119.835123 71 21ft 0kts
05-Jan-22 12:54 34.432559 -119.835123 71 21ft 0kts
05-Jan-22 12:55 34.432559 -119.835123 71 21ft 0kts
05-Jan-22 12:56 34.432559 -119.835123 71 21ft 0kts
05-Jan-22 12:57 34.432559 -119.835123 71 21ft 0kts
05-Jan-22 12:58 34.432579 -119.835037 81 21ft 0kts
05-Jan-22 12:59 34.432361 -119.834787 187 20ft 3kts
05-Jan-22 13:00 34.431299 -119.837813 250 19ft 14kts
05-Jan-22 13:01 34.430686 -119.839811 247 18ft 0kts
05-Jan-22 13:02 34.430686 -119.839811 247 18ft 0kts
05-Jan-22 13:03 34.430686 -119.839811 247 18ft 0kts
05-Jan-22 13:04 34.430648 -119.839930 248 18ft 4kts
05-Jan-22 13:05 34.409252 -119.834017 161 660ft 159kts
05-Jan-22 13:06 34.356771 -119.814655 161 2677ft 229kts
05-Jan-22 13:07 34.293332 -119.780622 152 4609ft 276kts
05-Jan-22 13:08 34.222879 -119.737870 151 7475ft 291kts
05-Jan-22 13:09 34.146989 -119.691339 151 7986ft 319kts
05-Jan-22 13:10 34.066875 -119.641982 151 7982ft 319kts
05-Jan-22 13:11 34.002709 -119.583104 107 8065ft 280kts
05-Jan-22 13:12 33.966939 -119.499001 120 9556ft 299kts
05-Jan-22 13:13 33.918139 -119.411007 120 10983ft 343kts
05-Jan-22 13:14 33.861060 -119.305762 121 10980ft 386kts
05-Jan-22 13:15 33.801417 -119.195989 121 10992ft 395kts
05-Jan-22 13:16 33.741651 -119.086242 121 10983ft 385kts
05-Jan-22 13:17 33.684011 -118.980654 121 10980ft 374kts
05-Jan-22 13:18 33.627200 -118.876851 121 10993ft 371kts
05-Jan-22 13:20 33.570606 -118.773678 121 10997ft 370kts
05-Jan-22 13:21 33.513881 -118.670680 121 11001ft 370kts
05-Jan-22 13:22 33.457139 -118.567707 121 11008ft 370kts
05-Jan-22 13:23 33.400283 -118.465062 121 11009ft 370kts
05-Jan-22 13:24 33.365847 -118.351540 96 11020ft 370kts
05-Jan-22 13:25 33.349633 -118.227574 96 11030ft 379kts
05-Jan-22 13:26 33.333513 -118.102650 96 11025ft 382kts
05-Jan-22 13:27 33.316786 -117.976436 96 11014ft 384kts
05-Jan-22 13:28 33.299959 -117.850948 96 11008ft 383kts
05-Jan-22 13:29 33.283146 -117.727545 97 10382ft 343kts
05-Jan-22 13:30 33.268428 -117.631649 97 8540ft 260kts
05-Jan-22 13:31 33.241455 -117.552848 130 6753ft 266kts
05-Jan-22 13:32 33.191028 -117.489218 133 5069ft 261kts
05-Jan-22 13:33 33.146624 -117.426342 95 5000ft 246kts
05-Jan-22 13:34 33.161599 -117.345495 77 4995ft 253kts
05-Jan-22 13:35 33.175294 -117.264134 76 4998ft 259kts
05-Jan-22 13:36 33.189563 -117.178460 85 4995ft 269kts
05-Jan-22 13:37 33.151948 -117.107875 157 5002ft 263kts
05-Jan-22 13:38 33.086914 -117.101842 178 4992ft 208kts
05-Jan-22 13:39 33.038846 -117.082451 150 4584ft 170kts
05-Jan-22 13:40 33.000816 -117.058185 151 3458ft 142kts
05-Jan-22 13:41 32.966919 -117.036666 150 2504ft 129kts
05-Jan-22 13:41 32.942925 -117.021444 151 2356ft 114kts
05-Jan-22 13:43 32.908224 -117.004084 159 2077ft 122kts
05-Jan-22 13:44 32.876288 -116.990070 160 1388ft 124kts
05-Jan-22 13:45 32.842837 -116.981657 175 1300ft 121kts
05-Jan-22 13:45 32.815646 -116.977496 132 1094ft 125kts
05-Jan-22 13:46 32.824683 -116.950427 320 1037ft 122kts
05-Jan-22 13:48 32.832272 -116.998040 277 987ft 128kts
05-Jan-22 13:49 32.817635 -116.996437 91 1419ft 129kts
05-Jan-22 13:49 32.811542 -116.965189 84 902ft 114kts
05-Jan-22 13:50 32.828282 -116.974808 283 373ft 87kts
05-Jan-22 13:51 32.828507 -116.981374 189 365ft 12kts
05-Jan-22 13:53 32.826667 -116.980064 101 370ft 0kts

Navigation Log

Ident Type
Flight plan parsing failed, navigation log unavailable